Time,TemperatureF,DewpointF,PressureIn,WindDirection,WindDirectionDegrees,WindSpeedMPH,WindSpeedGustMPH,Humidity,HourlyPrecipIn,Conditions,Clouds,dailyrainin,SoftwareType,DateUTC
2013-04-19 00:00:00,63.8,59.9,29.88,ESE,122,7.0,11.0,87,0.00,,,0.00,Wunderground v.1.15,2013-04-19 04:00:00,
2013-04-19 00:05:00,63.8,59.9,29.87,SSW,200,7.0,11.0,87,0.00,,,0.00,Wunderground v.1.15,2013-04-19 04:05:00,
2013-04-19 00:15:00,63.5,59.6,29.87,ESE,111,8.0,11.0,87,0.00,,,0.00,Wunderground v.1.15,2013-04-19 04:15:00,
2013-04-19 00:20:00,63.4,59.5,29.87,South,181,9.0,9.0,87,0.00,,,0.00,Wunderground v.1.15,2013-04-19 04:20:00,
2013-04-19 00:25:00,63.3,59.7,29.87,ESE,123,8.0,9.0,88,0.00,,,0.00,Wunderground v.1.15,2013-04-19 04:25:00,
2013-04-19 00:35:00,63.1,59.5,29.87,SSE,165,9.0,9.0,88,0.00,,,0.00,Wunderground v.1.15,2013-04-19 04:35:00,
2013-04-19 00:40:00,63.1,59.5,29.87,ESE,115,9.0,9.0,88,0.00,,,0.00,Wunderground v.1.15,2013-04-19 04:40:00,
2013-04-19 00:45:00,63.0,59.4,29.86,SE,125,8.0,12.0,88,0.00,,,0.00,Wunderground v.1.15,2013-04-19 04:45:00,
2013-04-19 00:50:00,62.7,59.4,29.86,East,89,7.0,12.0,89,0.00,,,0.01,Wunderground v.1.15,2013-04-19 04:50:00,
2013-04-19 00:55:00,62.2,59.5,29.87,ESE,102,7.0,12.0,91,0.45,,,0.03,Wunderground v.1.15,2013-04-19 04:55:00,
2013-04-19 01:00:00,61.7,59.4,29.87,ESE,122,7.0,7.0,92,0.16,,,0.04,Wunderground v.1.15,2013-04-19 05:00:00,
2013-04-19 03:05:00,60.9,58.6,29.82,SE,146,6.0,7.0,92,0.00,,,0.05,Wunderground v.1.15,2013-04-19 07:05:00,
2013-04-19 03:10:00,60.7,58.4,29.82,East,87,7.0,7.0,92,0.00,,,0.06,Wunderground v.1.15,2013-04-19 07:10:00,
2013-04-19 03:15:00,60.6,58.6,29.81,East,84,8.0,9.0,93,0.00,,,0.06,Wunderground v.1.15,2013-04-19 07:15:00,
2013-04-19 03:20:00,60.5,58.5,29.81,ESE,106,8.0,8.0,93,0.00,,,0.06,Wunderground v.1.15,2013-04-19 07:20:00,
2013-04-19 03:25:00,60.5,58.5,29.81,East,92,8.0,11.0,93,0.00,,,0.06,Wunderground v.1.15,2013-04-19 07:25:00,
2013-04-19 03:30:00,60.5,58.5,29.81,ENE,64,8.0,8.0,93,0.00,,,0.06,Wunderground v.1.15,2013-04-19 07:30:00,
2013-04-19 03:40:00,60.6,58.6,29.80,SW,221,7.0,7.0,93,0.00,,,0.06,Wunderground v.1.15,2013-04-19 07:40:00,
2013-04-19 03:45:00,60.5,58.5,29.81,SE,138,7.0,8.0,93,0.00,,,0.06,Wunderground v.1.15,2013-04-19 07:45:00,
2013-04-19 03:50:00,60.5,58.5,29.81,SSE,166,7.0,7.0,93,0.00,,,0.06,Wunderground v.1.15,2013-04-19 07:50:00,
2013-04-19 03:55:00,60.6,58.6,29.80,SSW,200,8.0,8.0,93,0.00,,,0.06,Wunderground v.1.15,2013-04-19 07:55:00,
2013-04-19 04:00:00,60.7,58.4,29.80,East,93,8.0,9.0,92,0.00,,,0.06,Wunderground v.1.15,2013-04-19 08:00:00,
2013-04-19 04:05:00,60.7,58.4,29.80,ESE,111,9.0,9.0,92,0.00,,,0.06,Wunderground v.1.15,2013-04-19 08:05:00,
2013-04-19 04:10:00,60.7,58.7,29.79,ESE,110,8.0,8.0,93,0.00,,,0.06,Wunderground v.1.15,2013-04-19 08:10:00,
2013-04-19 04:15:00,60.7,58.7,29.79,East,100,7.0,8.0,93,0.00,,,0.06,Wunderground v.1.15,2013-04-19 08:15:00,
2013-04-19 04:20:00,60.7,58.4,29.78,SE,141,8.0,8.0,92,0.00,,,0.06,Wunderground v.1.15,2013-04-19 08:20:00,
2013-04-19 04:25:00,60.7,58.4,29.78,SE,132,7.0,9.0,92,0.00,,,0.06,Wunderground v.1.15,2013-04-19 08:25:00,
2013-04-19 04:30:00,60.7,58.4,29.78,ESE,117,6.0,7.0,92,0.00,,,0.06,Wunderground v.1.15,2013-04-19 08:30:00,
2013-04-19 04:35:00,60.8,58.5,29.77,ESE,108,7.0,8.0,92,0.00,,,0.06,Wunderground v.1.15,2013-04-19 08:35:00,
2013-04-19 04:40:00,60.9,58.6,29.78,East,98,7.0,10.0,92,0.00,,,0.06,Wunderground v.1.15,2013-04-19 08:40:00,
2013-04-19 04:45:00,60.9,58.3,29.78,ESE,120,8.0,10.0,91,0.00,,,0.06,Wunderground v.1.15,2013-04-19 08:45:00,
2013-04-19 04:50:00,61.0,58.7,29.78,ESE,104,7.0,7.0,92,0.00,,,0.06,Wunderground v.1.15,2013-04-19 08:50:00,
2013-04-19 04:55:00,61.0,58.7,29.78,SSE,167,6.0,7.0,92,0.00,,,0.06,Wunderground v.1.15,2013-04-19 08:55:00,
2013-04-19 05:00:00,60.9,58.6,29.78,East,101,5.0,5.0,92,0.00,,,0.06,Wunderground v.1.15,2013-04-19 09:00:00,
2013-04-19 05:05:00,60.9,58.6,29.78,East,79,5.0,5.0,92,0.00,,,0.06,Wunderground v.1.15,2013-04-19 09:05:00,
2013-04-19 05:10:00,60.9,58.6,29.78,ESE,102,5.0,8.0,92,0.00,,,0.06,Wunderground v.1.15,2013-04-19 09:10:00,
2013-04-19 05:15:00,60.9,58.6,29.77,ESE,123,6.0,8.0,92,0.00,,,0.06,Wunderground v.1.15,2013-04-19 09:15:00,
2013-04-19 05:20:00,60.9,58.6,29.77,East,89,7.0,7.0,92,0.00,,,0.06,Wunderground v.1.15,2013-04-19 09:20:00,
2013-04-19 05:25:00,60.9,58.6,29.77,ESE,104,6.0,7.0,92,0.00,,,0.06,Wunderground v.1.15,2013-04-19 09:25:00,
2013-04-19 05:30:00,60.9,58.6,29.77,East,84,7.0,7.0,92,0.00,,,0.06,Wunderground v.1.15,2013-04-19 09:30:00,
2013-04-19 05:35:00,60.9,58.6,29.76,SSE,149,6.0,7.0,92,0.00,,,0.06,Wunderground v.1.15,2013-04-19 09:35:00,
2013-04-19 05:40:00,60.9,58.6,29.77,SE,142,6.0,6.0,92,0.00,,,0.06,Wunderground v.1.15,2013-04-19 09:40:00,
2013-04-19 05:45:00,60.9,58.6,29.77,SE,140,5.0,6.0,92,0.00,,,0.06,Wunderground v.1.15,2013-04-19 09:45:00,
2013-04-19 05:50:00,60.9,58.6,29.77,ESE,112,5.0,6.0,92,0.00,,,0.06,Wunderground v.1.15,2013-04-19 09:50:00,
2013-04-19 06:00:00,60.9,58.6,29.76,East,92,7.0,7.0,92,0.00,,,0.06,Wunderground v.1.15,2013-04-19 10:00:00,
2013-04-19 06:05:00,61.0,58.7,29.76,East,92,8.0,12.0,92,0.00,,,0.06,Wunderground v.1.15,2013-04-19 10:05:00,
2013-04-19 06:10:00,61.1,58.8,29.76,ESE,119,9.0,9.0,92,0.00,,,0.06,Wunderground v.1.15,2013-04-19 10:10:00,
2013-04-19 06:15:00,61.2,58.9,29.76,ESE,119,9.0,9.0,92,0.00,,,0.06,Wunderground v.1.15,2013-04-19 10:15:00,
2013-04-19 06:20:00,61.2,58.9,29.77,SSE,148,8.0,8.0,92,0.00,,,0.06,Wunderground v.1.15,2013-04-19 10:20:00,
2013-04-19 06:25:00,61.3,59.0,29.77,SE,130,7.0,8.0,92,0.00,,,0.06,Wunderground v.1.15,2013-04-19 10:25:00,
2013-04-19 06:30:00,61.3,59.0,29.77,ESE,110,6.0,6.0,92,0.00,,,0.06,Wunderground v.1.15,2013-04-19 10:30:00,
2013-04-19 06:35:00,61.2,58.9,29.77,SSW,192,7.0,7.0,92,0.00,,,0.06,Wunderground v.1.15,2013-04-19 10:35:00,
2013-04-19 06:40:00,61.0,59.0,29.77,East,98,8.0,9.0,93,0.00,,,0.07,Wunderground v.1.15,2013-04-19 10:40:00,
2013-04-19 06:45:00,61.0,59.0,29.78,SSE,148,8.0,9.0,93,0.00,,,0.07,Wunderground v.1.15,2013-04-19 10:45:00,
2013-04-19 06:50:00,60.9,58.9,29.78,ESE,121,6.0,6.0,93,0.00,,,0.07,Wunderground v.1.15,2013-04-19 10:50:00,
2013-04-19 06:55:00,61.0,59.0,29.78,SW,232,5.0,6.0,93,0.00,,,0.07,Wunderground v.1.15,2013-04-19 10:55:00,
2013-04-19 07:00:00,61.0,59.0,29.78,WSW,246,4.0,6.0,93,0.00,,,0.07,Wunderground v.1.15,2013-04-19 11:00:00,
2013-04-19 07:05:00,61.1,59.1,29.78,SW,225,4.0,6.0,93,0.00,,,0.07,Wunderground v.1.15,2013-04-19 11:05:00,
2013-04-19 07:10:00,61.2,59.2,29.78,SSW,203,5.0,5.0,93,0.00,,,0.07,Wunderground v.1.15,2013-04-19 11:10:00,
2013-04-19 07:15:00,61.2,58.9,29.77,ESE,114,5.0,5.0,92,0.00,,,0.07,Wunderground v.1.15,2013-04-19 11:15:00,
2013-04-19 07:20:00,61.3,59.0,29.77,SW,217,5.0,5.0,92,0.00,,,0.07,Wunderground v.1.15,2013-04-19 11:20:00,
2013-04-19 07:30:00,61.3,59.0,29.77,SW,225,4.0,4.0,92,0.00,,,0.07,Wunderground v.1.15,2013-04-19 11:30:00,
2013-04-19 07:35:00,61.4,58.7,29.78,SSE,159,5.0,6.0,91,0.00,,,0.07,Wunderground v.1.15,2013-04-19 11:35:00,
2013-04-19 07:40:00,61.5,58.8,29.78,SSE,160,5.0,5.0,91,0.00,,,0.07,Wunderground v.1.15,2013-04-19 11:40:00,
2013-04-19 07:45:00,61.5,58.8,29.78,East,79,4.0,5.0,91,0.00,,,0.07,Wunderground v.1.15,2013-04-19 11:45:00,
2013-04-19 07:50:00,61.5,58.8,29.78,East,93,3.0,6.0,91,0.00,,,0.07,Wunderground v.1.15,2013-04-19 11:50:00,
2013-04-19 08:00:00,61.7,58.7,29.78,SSE,155,5.0,5.0,90,0.00,,,0.07,Wunderground v.1.15,2013-04-19 12:00:00,
2013-04-19 08:10:00,61.8,58.8,29.78,SW,229,5.0,5.0,90,0.00,,,0.07,Wunderground v.1.15,2013-04-19 12:10:00,
2013-04-19 08:15:00,61.7,58.7,29.79,East,101,5.0,7.0,90,0.00,,,0.08,Wunderground v.1.15,2013-04-19 12:15:00,
2013-04-19 08:20:00,61.6,58.6,29.78,WSW,248,6.0,6.0,90,0.00,,,0.08,Wunderground v.1.15,2013-04-19 12:20:00,
2013-04-19 08:25:00,61.6,58.9,29.78,West,269,7.0,8.0,91,0.00,,,0.08,Wunderground v.1.15,2013-04-19 12:25:00,
2013-04-19 08:30:00,61.6,58.6,29.77,SSW,193,7.0,7.0,90,0.00,,,0.08,Wunderground v.1.15,2013-04-19 12:30:00,
2013-04-19 08:35:00,61.4,58.7,29.77,South,173,6.0,7.0,91,0.00,,,0.09,Wunderground v.1.15,2013-04-19 12:35:00,
2013-04-19 08:40:00,61.3,59.0,29.77,SE,141,6.0,6.0,92,0.00,,,0.09,Wunderground v.1.15,2013-04-19 12:40:00,
2013-04-19 08:45:00,61.2,58.9,29.77,WSW,245,6.0,6.0,92,0.00,,,0.09,Wunderground v.1.15,2013-04-19 12:45:00,
2013-04-19 08:50:00,61.1,58.8,29.76,WSW,248,5.0,5.0,92,0.00,,,0.09,Wunderground v.1.15,2013-04-19 12:50:00,
2013-04-19 08:55:00,61.0,58.7,29.76,East,101,4.0,7.0,92,0.00,,,0.10,Wunderground v.1.15,2013-04-19 12:55:00,
2013-04-19 09:00:00,61.0,58.7,29.77,SSE,153,5.0,5.0,92,0.00,,,0.10,Wunderground v.1.15,2013-04-19 13:00:00,
2013-04-19 09:05:00,61.0,58.7,29.77,WSW,243,5.0,5.0,92,0.00,,,0.10,Wunderground v.1.15,2013-04-19 13:05:00,
2013-04-19 09:10:00,61.0,58.7,29.77,SSW,207,5.0,6.0,92,1.29,,,0.13,Wunderground v.1.15,2013-04-19 13:10:00,
2013-04-19 09:20:00,60.8,58.8,29.77,South,179,5.0,5.0,93,0.12,,,0.16,Wunderground v.1.15,2013-04-19 13:20:00,
2013-04-19 09:25:00,60.7,58.7,29.77,SE,133,5.0,7.0,93,0.08,,,0.16,Wunderground v.1.15,2013-04-19 13:25:00,
2013-04-19 09:35:00,60.6,58.6,29.75,SSE,159,5.0,5.0,93,0.00,,,0.16,Wunderground v.1.15,2013-04-19 13:35:00,
2013-04-19 09:40:00,60.5,58.8,29.75,SE,132,5.0,5.0,94,0.00,,,0.16,Wunderground v.1.15,2013-04-19 13:40:00,
2013-04-19 09:45:00,60.4,58.7,29.76,East,95,4.0,5.0,94,0.00,,,0.17,Wunderground v.1.15,2013-04-19 13:45:00,
2013-04-19 09:50:00,60.4,59.0,29.76,East,86,5.0,5.0,95,0.00,,,0.17,Wunderground v.1.15,2013-04-19 13:50:00,
2013-04-19 09:55:00,60.4,59.0,29.76,South,169,6.0,6.0,95,0.00,,,0.17,Wunderground v.1.15,2013-04-19 13:55:00,
2013-04-19 10:00:00,60.5,59.1,29.76,SSE,159,5.0,5.0,95,0.00,,,0.17,Wunderground v.1.15,2013-04-19 14:00:00,
2013-04-19 10:05:00,60.7,59.3,29.75,SE,124,4.0,5.0,95,0.00,,,0.17,Wunderground v.1.15,2013-04-19 14:05:00,
2013-04-19 10:10:00,60.9,59.5,29.76,ESE,120,7.0,10.0,95,0.00,,,0.17,Wunderground v.1.15,2013-04-19 14:10:00,
2013-04-19 10:15:00,61.2,59.5,29.76,NE,49,8.0,15.0,94,0.00,,,0.17,Wunderground v.1.15,2013-04-19 14:15:00,
2013-04-19 10:20:00,61.5,59.5,29.75,East,96,8.0,8.0,93,0.00,,,0.18,Wunderground v.1.15,2013-04-19 14:20:00,
2013-04-19 10:25:00,61.6,59.6,29.76,SE,141,9.0,9.0,93,0.00,,,0.18,Wunderground v.1.15,2013-04-19 14:25:00,
2013-04-19 10:30:00,61.7,59.7,29.73,SW,219,8.0,8.0,93,0.00,,,0.18,Wunderground v.1.15,2013-04-19 14:30:00,
2013-04-19 10:40:00,61.6,59.6,29.72,SSW,203,6.0,6.0,93,0.00,,,0.18,Wunderground v.1.15,2013-04-19 14:40:00,
2013-04-19 10:45:00,61.7,59.7,29.73,SE,138,6.0,6.0,93,0.00,,,0.18,Wunderground v.1.15,2013-04-19 14:45:00,
2013-04-19 10:50:00,61.8,59.8,29.73,East,95,7.0,7.0,93,0.00,,,0.18,Wunderground v.1.15,2013-04-19 14:50:00,
2013-04-19 10:55:00,61.9,59.9,29.73,SSE,149,7.0,7.0,93,0.00,,,0.18,Wunderground v.1.15,2013-04-19 14:55:00,
2013-04-19 11:00:00,61.9,59.9,29.73,South,177,6.0,7.0,93,0.00,,,0.18,Wunderground v.1.15,2013-04-19 15:00:00,
2013-04-19 11:05:00,61.9,59.9,29.73,East,90,6.0,8.0,93,0.00,,,0.18,Wunderground v.1.15,2013-04-19 15:05:00,
2013-04-19 11:10:00,62.0,60.0,29.74,West,259,5.0,5.0,93,0.00,,,0.18,Wunderground v.1.15,2013-04-19 15:10:00,
2013-04-19 11:20:00,62.0,60.0,29.74,ESE,108,5.0,6.0,93,0.00,,,0.18,Wunderground v.1.15,2013-04-19 15:20:00,
2013-04-19 11:25:00,61.9,59.9,29.73,South,172,6.0,7.0,93,0.00,,,0.18,Wunderground v.1.15,2013-04-19 15:25:00,
2013-04-19 11:30:00,61.9,59.9,29.72,ESE,108,6.0,6.0,93,0.00,,,0.18,Wunderground v.1.15,2013-04-19 15:30:00,
2013-04-19 11:35:00,61.8,60.1,29.72,ESE,112,5.0,7.0,94,0.00,,,0.18,Wunderground v.1.15,2013-04-19 15:35:00,
2013-04-19 11:40:00,61.8,60.1,29.72,SW,219,5.0,5.0,94,0.00,,,0.18,Wunderground v.1.15,2013-04-19 15:40:00,
2013-04-19 11:45:00,61.8,60.1,29.71,SSW,200,5.0,5.0,94,0.00,,,0.18,Wunderground v.1.15,2013-04-19 15:45:00,
2013-04-19 11:55:00,61.8,60.1,29.70,SSE,157,4.0,5.0,94,0.00,,,0.19,Wunderground v.1.15,2013-04-19 15:55:00,
2013-04-19 12:00:00,61.9,60.2,29.70,ESE,110,5.0,7.0,94,0.00,,,0.19,Wunderground v.1.15,2013-04-19 16:00:00,
2013-04-19 12:05:00,61.9,60.2,29.70,ESE,112,5.0,7.0,94,0.00,,,0.19,Wunderground v.1.15,2013-04-19 16:05:00,
2013-04-19 12:10:00,61.9,60.2,29.70,ESE,108,4.0,4.0,94,0.00,,,0.19,Wunderground v.1.15,2013-04-19 16:10:00,
2013-04-19 12:15:00,62.1,60.4,29.69,SE,130,4.0,4.0,94,0.00,,,0.19,Wunderground v.1.15,2013-04-19 16:15:00,
2013-04-19 12:20:00,62.2,60.5,29.69,West,259,4.0,4.0,94,0.00,,,0.19,Wunderground v.1.15,2013-04-19 16:20:00,
2013-04-19 12:25:00,62.4,60.7,29.68,ESE,123,4.0,4.0,94,0.00,,,0.19,Wunderground v.1.15,2013-04-19 16:25:00,
2013-04-19 12:30:00,62.5,60.4,29.69,SE,138,5.0,5.0,93,0.00,,,0.19,Wunderground v.1.15,2013-04-19 16:30:00,
2013-04-19 12:40:00,62.8,60.7,29.68,South,180,5.0,6.0,93,0.00,,,0.19,Wunderground v.1.15,2013-04-19 16:40:00,
2013-04-19 12:45:00,62.8,60.4,29.67,South,184,6.0,6.0,92,0.00,,,0.19,Wunderground v.1.15,2013-04-19 16:45:00,
2013-04-19 12:50:00,62.7,60.6,29.67,ESE,103,5.0,9.0,93,0.00,,,0.20,Wunderground v.1.15,2013-04-19 16:50:00,
2013-04-19 12:55:00,62.4,60.7,29.68,SE,131,5.0,9.0,94,0.25,,,0.22,Wunderground v.1.15,2013-04-19 16:55:00,
2013-04-19 13:05:00,62.1,60.4,29.67,ESE,118,7.0,9.0,94,0.13,,,0.25,Wunderground v.1.15,2013-04-19 17:05:00,
2013-04-19 13:10:00,62.1,60.4,29.68,ESE,105,7.0,10.0,94,0.09,,,0.25,Wunderground v.1.15,2013-04-19 17:10:00,
2013-04-19 13:15:00,62.0,60.3,29.68,SE,139,6.0,10.0,94,0.08,,,0.26,Wunderground v.1.15,2013-04-19 17:15:00,
2013-04-19 13:20:00,62.0,60.3,29.69,SW,229,6.0,6.0,94,0.11,,,0.27,Wunderground v.1.15,2013-04-19 17:20:00,
2013-04-19 13:25:00,62.1,60.4,29.69,SSW,210,7.0,7.0,94,0.18,,,0.29,Wunderground v.1.15,2013-04-19 17:25:00,
2013-04-19 13:30:00,62.2,60.5,29.69,SW,225,7.0,10.0,94,0.20,,,0.30,Wunderground v.1.15,2013-04-19 17:30:00,
2013-04-19 13:35:00,62.1,60.4,29.68,SE,139,7.0,10.0,94,0.18,,,0.32,Wunderground v.1.15,2013-04-19 17:35:00,
2013-04-19 13:40:00,62.1,60.4,29.68,WSW,243,6.0,6.0,94,1.65,,,0.39,Wunderground v.1.15,2013-04-19 17:40:00,
2013-04-19 13:45:00,61.9,60.5,29.70,SE,135,5.0,6.0,95,0.36,,,0.48,Wunderground v.1.15,2013-04-19 17:45:00,
2013-04-19 13:50:00,62.0,60.6,29.69,ESE,105,6.0,9.0,95,0.23,,,0.50,Wunderground v.1.15,2013-04-19 17:50:00,
2013-04-19 13:55:00,62.0,60.6,29.70,ESE,114,7.0,10.0,95,0.13,,,0.51,Wunderground v.1.15,2013-04-19 17:55:00,
2013-04-19 14:00:00,62.0,60.6,29.70,East,98,8.0,11.0,95,0.12,,,0.52,Wunderground v.1.15,2013-04-19 18:00:00,
2013-04-19 14:05:00,62.1,60.7,29.72,NW,312,9.0,11.0,95,0.06,,,0.52,Wunderground v.1.15,2013-04-19 18:05:00,
2013-04-19 14:10:00,62.1,60.7,29.71,SSE,159,8.0,8.0,95,0.04,,,0.52,Wunderground v.1.15,2013-04-19 18:10:00,
2013-04-19 14:15:00,62.2,60.8,29.71,East,97,8.0,19.0,95,0.04,,,0.53,Wunderground v.1.15,2013-04-19 18:15:00,
2013-04-19 14:20:00,62.2,60.5,29.72,East,89,8.0,8.0,94,0.04,,,0.53,Wunderground v.1.15,2013-04-19 18:20:00,
2013-04-19 14:25:00,62.2,60.5,29.71,SE,127,8.0,8.0,94,0.04,,,0.53,Wunderground v.1.15,2013-04-19 18:25:00,
2013-04-19 14:30:00,62.1,60.4,29.71,SE,141,6.0,6.0,94,0.04,,,0.54,Wunderground v.1.15,2013-04-19 18:30:00,
2013-04-19 14:35:00,62.1,60.4,29.70,East,82,5.0,6.0,94,0.04,,,0.54,Wunderground v.1.15,2013-04-19 18:35:00,
2013-04-19 14:40:00,62.0,60.3,29.70,SSW,192,6.0,6.0,94,0.05,,,0.55,Wunderground v.1.15,2013-04-19 18:40:00,
2013-04-19 14:45:00,61.9,60.2,29.70,SE,125,5.0,6.0,94,0.05,,,0.55,Wunderground v.1.15,2013-04-19 18:45:00,
2013-04-19 14:55:00,61.7,60.0,29.71,SE,125,6.0,6.0,94,0.00,,,0.55,Wunderground v.1.15,2013-04-19 18:55:00,
2013-04-19 15:05:00,61.6,59.9,29.70,SSE,162,5.0,6.0,94,0.11,,,0.57,Wunderground v.1.15,2013-04-19 19:05:00,
2013-04-19 15:10:00,61.5,60.1,29.70,SW,228,5.0,5.0,95,0.07,,,0.58,Wunderground v.1.15,2013-04-19 19:10:00,
2013-04-19 15:15:00,61.4,60.0,29.71,ESE,121,4.0,5.0,95,0.31,,,0.60,Wunderground v.1.15,2013-04-19 19:15:00,
2013-04-19 15:20:00,61.2,59.8,29.71,ESE,107,6.0,10.0,95,0.38,,,0.62,Wunderground v.1.15,2013-04-19 19:20:00,
2013-04-19 15:25:00,61.0,59.6,29.70,ENE,72,7.0,10.0,95,0.15,,,0.64,Wunderground v.1.15,2013-04-19 19:25:00,
2013-04-19 15:30:00,60.9,59.5,29.70,East,96,6.0,14.0,95,0.12,,,0.64,Wunderground v.1.15,2013-04-19 19:30:00,
2013-04-19 15:35:00,60.8,59.4,29.70,SSE,156,6.0,14.0,95,0.24,,,0.67,Wunderground v.1.15,2013-04-19 19:35:00,
2013-04-19 15:40:00,60.7,59.3,29.69,East,87,6.0,6.0,95,0.12,,,0.67,Wunderground v.1.15,2013-04-19 19:40:00,
2013-04-19 15:45:00,60.5,59.1,29.69,SSW,204,5.0,6.0,95,0.06,,,0.67,Wunderground v.1.15,2013-04-19 19:45:00,
2013-04-19 15:50:00,60.4,59.0,29.69,ESE,104,6.0,12.0,95,0.04,,,0.67,Wunderground v.1.15,2013-04-19 19:50:00,
2013-04-19 15:55:00,60.3,58.9,29.70,East,94,8.0,12.0,95,0.00,,,0.67,Wunderground v.1.15,2013-04-19 19:55:00,
2013-04-19 16:00:00,60.3,58.9,29.69,East,88,9.0,11.0,95,0.00,,,0.67,Wunderground v.1.15,2013-04-19 20:00:00,
2013-04-19 16:05:00,60.3,58.9,29.70,East,93,9.0,11.0,95,0.00,,,0.67,Wunderground v.1.15,2013-04-19 20:05:00,
2013-04-19 16:10:00,60.3,58.6,29.70,East,89,8.0,8.0,94,0.00,,,0.67,Wunderground v.1.15,2013-04-19 20:10:00,
2013-04-19 16:15:00,60.2,58.5,29.69,ESE,108,6.0,8.0,94,0.00,,,0.67,Wunderground v.1.15,2013-04-19 20:15:00,
2013-04-19 16:25:00,60.1,58.4,29.66,ESE,122,6.0,6.0,94,0.00,,,0.67,Wunderground v.1.15,2013-04-19 20:25:00,
2013-04-19 16:30:00,59.9,58.2,29.66,East,89,5.0,10.0,94,0.00,,,0.67,Wunderground v.1.15,2013-04-19 20:30:00,
2013-04-19 16:35:00,59.8,58.4,29.68,SW,228,6.0,10.0,95,0.00,,,0.67,Wunderground v.1.15,2013-04-19 20:35:00,
2013-04-19 16:40:00,59.7,58.3,29.67,SSW,200,5.0,5.0,95,0.00,,,0.67,Wunderground v.1.15,2013-04-19 20:40:00,
2013-04-19 16:45:00,59.7,58.3,29.69,NW,309,4.0,5.0,95,0.00,,,0.67,Wunderground v.1.15,2013-04-19 20:45:00,
2013-04-19 16:55:00,59.8,58.1,29.69,ESE,106,3.0,7.0,94,0.00,,,0.67,Wunderground v.1.15,2013-04-19 20:55:00,
2013-04-19 17:05:00,59.8,58.1,29.68,ENE,66,5.0,5.0,94,0.00,,,0.67,Wunderground v.1.15,2013-04-19 21:05:00,
2013-04-19 17:10:00,59.9,58.2,29.68,ESE,104,3.0,3.0,94,0.00,,,0.67,Wunderground v.1.15,2013-04-19 21:10:00,
2013-04-19 17:15:00,59.7,57.7,29.68,NNW,329,3.0,4.0,93,0.00,,,0.67,Wunderground v.1.15,2013-04-19 21:15:00,
2013-04-19 17:20:00,57.9,55.0,29.68,NW,313,2.0,2.0,90,0.00,,,0.67,Wunderground v.1.15,2013-04-19 21:20:00,
2013-04-19 17:25:00,56.2,53.6,29.69,NW,309,2.0,4.0,91,0.00,,,0.67,Wunderground v.1.15,2013-04-19 21:25:00,
2013-04-19 17:35:00,54.0,52.0,29.71,North,6,2.0,4.0,93,0.00,,,0.67,Wunderground v.1.15,2013-04-19 21:35:00,
2013-04-19 17:40:00,53.3,51.6,29.70,East,94,1.0,4.0,94,0.00,,,0.67,Wunderground v.1.15,2013-04-19 21:40:00,
2013-04-19 17:45:00,52.7,51.0,29.70,SW,215,1.0,4.0,94,0.00,,,0.67,Wunderground v.1.15,2013-04-19 21:45:00,
2013-04-19 17:50:00,52.0,50.3,29.70,ESE,107,2.0,2.0,94,0.00,,,0.67,Wunderground v.1.15,2013-04-19 21:50:00,
2013-04-19 17:55:00,51.4,49.7,29.70,SSE,159,2.0,4.0,94,0.00,,,0.67,Wunderground v.1.15,2013-04-19 21:55:00,
2013-04-19 18:00:00,51.0,49.3,29.69,WSW,239,1.0,4.0,94,0.00,,,0.67,Wunderground v.1.15,2013-04-19 22:00:00,
2013-04-19 18:05:00,50.4,48.7,29.69,West,271,2.0,4.0,94,0.00,,,0.67,Wunderground v.1.15,2013-04-19 22:05:00,
2013-04-19 18:10:00,50.1,48.7,29.70,West,271,2.0,4.0,95,0.00,,,0.67,Wunderground v.1.15,2013-04-19 22:10:00,
2013-04-19 18:15:00,50.0,48.6,29.70,West,269,2.0,4.0,95,0.00,,,0.67,Wunderground v.1.15,2013-04-19 22:15:00,
2013-04-19 18:20:00,49.8,48.4,29.71,West,270,2.0,4.0,95,0.00,,,0.67,Wunderground v.1.15,2013-04-19 22:20:00,
2013-04-19 18:30:00,49.4,48.3,29.70,West,281,2.0,4.0,96,0.00,,,0.67,Wunderground v.1.15,2013-04-19 22:30:00,
2013-04-19 18:35:00,49.3,48.2,29.69,West,263,2.0,4.0,96,0.00,,,0.67,Wunderground v.1.15,2013-04-19 22:35:00,
2013-04-19 18:40:00,49.1,47.7,29.70,SW,222,2.0,2.0,95,0.00,,,0.67,Wunderground v.1.15,2013-04-19 22:40:00,
2013-04-19 18:50:00,49.1,48.0,29.69,West,276,2.0,4.0,96,0.00,,,0.67,Wunderground v.1.15,2013-04-19 22:50:00,
2013-04-19 18:55:00,48.8,47.4,29.69,West,263,2.0,4.0,95,0.00,,,0.67,Wunderground v.1.15,2013-04-19 22:55:00,
2013-04-19 19:00:00,48.7,47.3,29.69,West,264,1.0,4.0,95,0.00,,,0.67,Wunderground v.1.15,2013-04-19 23:00:00,
2013-04-19 19:05:00,48.7,47.3,29.67,West,281,1.0,4.0,95,0.00,,,0.67,Wunderground v.1.15,2013-04-19 23:05:00,
2013-04-19 19:10:00,48.7,47.3,29.69,West,276,1.0,4.0,95,0.00,,,0.67,Wunderground v.1.15,2013-04-19 23:10:00,
2013-04-19 19:15:00,48.6,47.2,29.70,WSW,246,2.0,4.0,95,0.00,,,0.67,Wunderground v.1.15,2013-04-19 23:15:00,
2013-04-19 19:20:00,48.5,47.1,29.70,SW,227,3.0,8.0,95,0.00,,,0.67,Wunderground v.1.15,2013-04-19 23:20:00,
2013-04-19 19:25:00,48.2,46.6,29.70,West,259,3.0,8.0,94,0.00,,,0.67,Wunderground v.1.15,2013-04-19 23:25:00,
2013-04-19 19:30:00,47.8,46.2,29.71,WNW,291,4.0,4.0,94,0.00,,,0.67,Wunderground v.1.15,2013-04-19 23:30:00,
2013-04-19 19:35:00,47.5,45.9,29.71,WSW,248,4.0,5.0,94,0.00,,,0.67,Wunderground v.1.15,2013-04-19 23:35:00,
2013-04-19 19:40:00,47.2,45.6,29.71,West,259,4.0,4.0,94,0.00,,,0.67,Wunderground v.1.15,2013-04-19 23:40:00,
2013-04-19 19:45:00,47.0,45.4,29.71,WSW,242,4.0,4.0,94,0.00,,,0.67,Wunderground v.1.15,2013-04-19 23:45:00,
2013-04-19 19:50:00,46.9,45.3,29.71,West,267,3.0,4.0,94,0.00,,,0.67,Wunderground v.1.15,2013-04-19 23:50:00,
2013-04-19 19:55:00,46.8,45.4,29.72,WSW,252,3.0,4.0,95,0.00,,,0.67,Wunderground v.1.15,2013-04-19 23:55:00,
2013-04-19 20:00:00,46.8,45.4,29.72,WNW,284,3.0,4.0,95,0.00,,,0.67,Wunderground v.1.15,2013-04-20 00:00:00,
2013-04-19 20:05:00,46.7,45.1,29.72,West,269,3.0,4.0,94,0.00,,,0.67,Wunderground v.1.15,2013-04-20 00:05:00,
2013-04-19 20:15:00,46.3,44.4,29.73,West,260,3.0,4.0,93,0.00,,,0.67,Wunderground v.1.15,2013-04-20 00:15:00,
2013-04-19 20:25:00,46.0,44.4,29.72,WSW,246,3.0,4.0,94,0.00,,,0.67,Wunderground v.1.15,2013-04-20 00:25:00,
2013-04-19 20:30:00,46.0,44.4,29.72,WSW,252,2.0,4.0,94,0.00,,,0.67,Wunderground v.1.15,2013-04-20 00:30:00,
2013-04-19 20:35:00,45.8,44.2,29.73,WSW,243,2.0,4.0,94,0.00,,,0.67,Wunderground v.1.15,2013-04-20 00:35:00,
2013-04-19 20:40:00,45.7,44.1,29.73,SW,224,2.0,2.0,94,0.00,,,0.67,Wunderground v.1.15,2013-04-20 00:40:00,
2013-04-19 20:45:00,45.6,44.0,29.73,West,263,2.0,4.0,94,0.00,,,0.67,Wunderground v.1.15,2013-04-20 00:45:00,
2013-04-19 20:50:00,45.5,43.6,29.74,WSW,248,3.0,4.0,93,0.00,,,0.67,Wunderground v.1.15,2013-04-20 00:50:00,
2013-04-19 20:55:00,45.3,43.1,29.74,SW,228,3.0,4.0,92,0.00,,,0.67,Wunderground v.1.15,2013-04-20 00:55:00,
2013-04-19 21:00:00,45.1,42.9,29.75,WSW,240,3.0,3.0,92,0.00,,,0.67,Wunderground v.1.15,2013-04-20 01:00:00,
2013-04-19 21:05:00,45.0,42.5,29.75,WSW,255,3.0,4.0,91,0.00,,,0.67,Wunderground v.1.15,2013-04-20 01:05:00,
2013-04-19 21:10:00,44.8,42.3,29.75,WSW,250,3.0,4.0,91,0.00,,,0.67,Wunderground v.1.15,2013-04-20 01:10:00,
2013-04-19 21:20:00,44.4,41.9,29.75,WSW,247,3.0,4.0,91,0.00,,,0.67,Wunderground v.1.15,2013-04-20 01:20:00,
2013-04-19 21:25:00,44.1,41.4,29.75,SW,236,4.0,4.0,90,0.00,,,0.67,Wunderground v.1.15,2013-04-20 01:25:00,
2013-04-19 21:30:00,43.9,40.9,29.76,WSW,238,4.0,4.0,89,0.00,,,0.67,Wunderground v.1.15,2013-04-20 01:30:00,
2013-04-19 21:35:00,43.9,40.9,29.77,SW,228,3.0,4.0,89,0.00,,,0.67,Wunderground v.1.15,2013-04-20 01:35:00,
2013-04-19 21:40:00,43.7,41.0,29.77,WSW,243,3.0,3.0,90,0.00,,,0.67,Wunderground v.1.15,2013-04-20 01:40:00,
2013-04-19 21:50:00,43.4,40.7,29.77,WSW,245,3.0,3.0,90,0.00,,,0.67,Wunderground v.1.15,2013-04-20 01:50:00,
2013-04-19 22:00:00,43.0,40.0,29.77,West,267,3.0,4.0,89,0.00,,,0.67,Wunderground v.1.15,2013-04-20 02:00:00,
2013-04-19 22:05:00,42.8,39.5,29.78,West,271,4.0,4.0,88,0.00,,,0.67,Wunderground v.1.15,2013-04-20 02:05:00,
2013-04-19 22:10:00,42.6,39.0,29.79,WSW,255,4.0,4.0,87,0.00,,,0.67,Wunderground v.1.15,2013-04-20 02:10:00,
2013-04-19 22:15:00,42.4,39.1,29.80,SW,236,3.0,5.0,88,0.00,,,0.67,Wunderground v.1.15,2013-04-20 02:15:00,
2013-04-19 22:20:00,42.3,39.0,29.80,SW,232,4.0,4.0,88,0.00,,,0.67,Wunderground v.1.15,2013-04-20 02:20:00,
2013-04-19 22:30:00,41.9,38.0,29.82,WSW,243,3.0,4.0,86,0.00,,,0.67,Wunderground v.1.15,2013-04-20 02:30:00,
2013-04-19 22:35:00,41.7,37.8,29.82,SW,229,3.0,4.0,86,0.00,,,0.67,Wunderground v.1.15,2013-04-20 02:35:00,
2013-04-19 22:40:00,41.5,37.6,29.83,WSW,246,3.0,4.0,86,0.00,,,0.67,Wunderground v.1.15,2013-04-20 02:40:00,
2013-04-19 22:45:00,41.3,37.1,29.83,SW,225,3.0,4.0,85,0.00,,,0.67,Wunderground v.1.15,2013-04-20 02:45:00,
2013-04-19 22:50:00,41.2,36.7,29.83,WSW,248,3.0,4.0,84,0.00,,,0.67,Wunderground v.1.15,2013-04-20 02:50:00,
2013-04-19 22:55:00,41.1,36.3,29.84,SW,219,3.0,4.0,83,0.00,,,0.67,Wunderground v.1.15,2013-04-20 02:55:00,
2013-04-19 23:00:00,41.0,36.5,29.84,WSW,253,3.0,4.0,84,0.00,,,0.67,Wunderground v.1.15,2013-04-20 03:00:00,
2013-04-19 23:05:00,40.9,36.1,29.84,West,259,3.0,4.0,83,0.00,,,0.67,Wunderground v.1.15,2013-04-20 03:05:00,
2013-04-19 23:10:00,40.9,36.7,29.84,SW,225,4.0,4.0,85,0.00,,,0.67,Wunderground v.1.15,2013-04-20 03:10:00,
2013-04-19 23:15:00,40.7,35.9,29.85,WSW,253,4.0,4.0,83,0.00,,,0.67,Wunderground v.1.15,2013-04-20 03:15:00,
2013-04-19 23:20:00,40.7,35.6,29.85,West,267,3.0,3.0,82,0.00,,,0.67,Wunderground v.1.15,2013-04-20 03:20:00,
2013-04-19 23:30:00,40.4,35.6,29.85,WNW,287,3.0,3.0,83,0.00,,,0.67,Wunderground v.1.15,2013-04-20 03:30:00,
2013-04-19 23:40:00,40.4,35.0,29.85,SW,236,3.0,3.0,81,0.00,,,0.67,Wunderground v.1.15,2013-04-20 03:40:00,
2013-04-19 23:50:00,40.3,34.3,29.85,WSW,256,3.0,4.0,79,0.00,,,0.67,Wunderground v.1.15,2013-04-20 03:50:00,